Arthur, Arkansas
Current Conditions -  °F | °C
As of 5:16 AM on Sunday 23 Nov 2014 (Local Time) from KRUE Reporting Station
Light Rain Light Rain  
Wind Chill: 57°   Ceiling: 1400
Heat Index: 57°   Visibility: 6mi
Dew Point: 55°   Wind: 0mph
Humidity: 93%   Direction: NA
Pressure: 29.65"   Gusts: NA
Location:  35.2722°N, 92.6766°W
Report Text: KRUE 231116Z AUTO 00000KT 6SM -RA BR OVC014 14/13 A2965 RMK AO2 T01390128 PNO $
Loading
Personal Weather Stations






























Interactive Weather Map New forecast layout! Learn more

10-Day Weather Forecast

Advertisements
Track Severe Weather on mobile